sensor_id;sensor_type;location;lat;lon;timestamp;P1;durP1;ratioP1;P2;durP2;ratioP2
22764;SDS011;11549;50.852;3.816;2023-03-01T00:01:22;19.10;;;13.07;;
22764;SDS011;11549;50.852;3.816;2023-03-01T00:03:52;17.42;;;12.68;;
22764;SDS011;11549;50.852;3.816;2023-03-01T00:06:22;16.65;;;12.80;;
22764;SDS011;11549;50.852;3.816;2023-03-01T00:08:51;17.80;;;13.00;;
22764;SDS011;11549;50.852;3.816;2023-03-01T00:11:20;18.05;;;12.93;;
22764;SDS011;11549;50.852;3.816;2023-03-01T00:13:52;17.90;;;12.63;;
22764;SDS011;11549;50.852;3.816;2023-03-01T00:16:22;20.95;;;13.98;;
22764;SDS011;11549;50.852;3.816;2023-03-01T00:18:53;17.27;;;12.93;;
22764;SDS011;11549;50.852;3.816;2023-03-01T00:21:22;17.52;;;13.30;;
22764;SDS011;11549;50.852;3.816;2023-03-01T00:23:51;21.15;;;14.13;;
22764;SDS011;11549;50.852;3.816;2023-03-01T00:26:20;18.25;;;12.50;;
22764;SDS011;11549;50.852;3.816;2023-03-01T00:28:52;19.70;;;12.65;;
22764;SDS011;11549;50.852;3.816;2023-03-01T00:31:23;17.73;;;12.45;;
22764;SDS011;11549;50.852;3.816;2023-03-01T00:33:53;15.82;;;11.60;;
22764;SDS011;11549;50.852;3.816;2023-03-01T00:36:23;16.70;;;12.00;;
22764;SDS011;11549;50.852;3.816;2023-03-01T00:38:53;16.50;;;12.13;;
22764;SDS011;11549;50.852;3.816;2023-03-01T00:41:23;15.73;;;12.02;;
22764;SDS011;11549;50.852;3.816;2023-03-01T00:43:54;16.67;;;11.95;;
22764;SDS011;11549;50.852;3.816;2023-03-01T00:46:23;21.65;;;12.38;;
22764;SDS011;11549;50.852;3.816;2023-03-01T00:48:53;18.05;;;12.75;;
22764;SDS011;11549;50.852;3.816;2023-03-01T00:51:22;18.15;;;13.27;;
22764;SDS011;11549;50.852;3.816;2023-03-01T00:53:52;18.65;;;13.02;;
22764;SDS011;11549;50.852;3.816;2023-03-01T00:56:24;21.33;;;13.20;;
22764;SDS011;11549;50.852;3.816;2023-03-01T00:58:52;21.88;;;13.98;;
22764;SDS011;11549;50.852;3.816;2023-03-01T01:01:22;19.27;;;13.55;;
22764;SDS011;11549;50.852;3.816;2023-03-01T01:03:54;19.02;;;13.43;;
22764;SDS011;11549;50.852;3.816;2023-03-01T01:06:25;19.80;;;13.07;;
22764;SDS011;11549;50.852;3.816;2023-03-01T01:08:55;19.73;;;12.82;;
22764;SDS011;11549;50.852;3.816;2023-03-01T01:11:26;19.63;;;13.10;;
22764;SDS011;11549;50.852;3.816;2023-03-01T01:13:56;18.05;;;12.50;;
22764;SDS011;11549;50.852;3.816;2023-03-01T01:16:26;19.95;;;12.65;;
22764;SDS011;11549;50.852;3.816;2023-03-01T01:18:56;19.70;;;12.98;;
22764;SDS011;11549;50.852;3.816;2023-03-01T01:21:25;16.63;;;11.40;;
22764;SDS011;11549;50.852;3.816;2023-03-01T01:23:54;16.45;;;11.63;;
22764;SDS011;11549;50.852;3.816;2023-03-01T01:26:24;15.63;;;11.73;;
22764;SDS011;11549;50.852;3.816;2023-03-01T01:28:55;20.15;;;11.98;;
22764;SDS011;11549;50.852;3.816;2023-03-01T01:31:24;19.00;;;12.15;;
22764;SDS011;11549;50.852;3.816;2023-03-01T01:33:53;18.50;;;12.07;;
22764;SDS011;11549;50.852;3.816;2023-03-01T01:36:22;16.40;;;11.43;;
22764;SDS011;11549;50.852;3.816;2023-03-01T01:38:51;15.38;;;11.75;;
22764;SDS011;11549;50.852;3.816;2023-03-01T01:41:20;18.13;;;12.80;;
22764;SDS011;11549;50.852;3.816;2023-03-01T01:46:41;19.58;;;12.70;;
22764;SDS011;11549;50.852;3.816;2023-03-01T01:49:16;18.70;;;12.32;;
22764;SDS011;11549;50.852;3.816;2023-03-01T01:51:55;17.45;;;12.15;;
22764;SDS011;11549;50.852;3.816;2023-03-01T01:54:36;20.88;;;14.00;;
22764;SDS011;11549;50.852;3.816;2023-03-01T01:57:10;20.65;;;13.30;;
22764;SDS011;11549;50.852;3.816;2023-03-01T01:59:45;19.88;;;13.65;;
22764;SDS011;11549;50.852;3.816;2023-03-01T02:02:18;20.08;;;13.07;;
22764;SDS011;11549;50.852;3.816;2023-03-01T02:04:48;18.92;;;12.40;;
22764;SDS011;11549;50.852;3.816;2023-03-01T02:07:20;18.23;;;13.00;;
22764;SDS011;11549;50.852;3.816;2023-03-01T02:09:51;16.75;;;12.48;;
22764;SDS011;11549;50.852;3.816;2023-03-01T02:12:21;19.95;;;12.77;;
22764;SDS011;11549;50.852;3.816;2023-03-01T02:14:53;20.70;;;12.63;;
22764;SDS011;11549;50.852;3.816;2023-03-01T02:17:21;20.77;;;12.75;;
22764;SDS011;11549;50.852;3.816;2023-03-01T02:19:53;17.23;;;12.20;;
22764;SDS011;11549;50.852;3.816;2023-03-01T02:22:34;21.45;;;12.48;;
22764;SDS011;11549;50.852;3.816;2023-03-01T02:25:07;19.70;;;12.98;;
22764;SDS011;11549;50.852;3.816;2023-03-01T02:27:47;22.30;;;13.10;;
22764;SDS011;11549;50.852;3.816;2023-03-01T02:30:22;23.15;;;13.43;;
22764;SDS011;11549;50.852;3.816;2023-03-01T02:32:53;19.63;;;14.50;;
22764;SDS011;11549;50.852;3.816;2023-03-01T02:35:29;19.27;;;13.18;;
22764;SDS011;11549;50.852;3.816;2023-03-01T02:38:01;18.88;;;13.40;;
22764;SDS011;11549;50.852;3.816;2023-03-01T02:40:31;18.95;;;13.15;;
22764;SDS011;11549;50.852;3.816;2023-03-01T02:43:02;18.15;;;13.05;;
22764;SDS011;11549;50.852;3.816;2023-03-01T02:45:35;22.48;;;13.25;;
22764;SDS011;11549;50.852;3.816;2023-03-01T02:48:04;21.85;;;13.80;;
22764;SDS011;11549;50.852;3.816;2023-03-01T02:50:39;19.55;;;14.48;;
22764;SDS011;11549;50.852;3.816;2023-03-01T02:53:21;18.40;;;13.23;;
22764;SDS011;11549;50.852;3.816;2023-03-01T02:55:55;21.50;;;14.05;;
22764;SDS011;11549;50.852;3.816;2023-03-01T02:58:23;19.15;;;13.20;;
22764;SDS011;11549;50.852;3.816;2023-03-01T03:00:53;19.83;;;13.38;;
22764;SDS011;11549;50.852;3.816;2023-03-01T03:03:21;17.75;;;13.25;;
22764;SDS011;11549;50.852;3.816;2023-03-01T03:05:50;18.92;;;13.38;;
22764;SDS011;11549;50.852;3.816;2023-03-01T03:08:18;19.85;;;13.27;;
22764;SDS011;11549;50.852;3.816;2023-03-01T03:10:50;17.63;;;12.73;;
22764;SDS011;11549;50.852;3.816;2023-03-01T03:13:19;19.80;;;13.02;;
22764;SDS011;11549;50.852;3.816;2023-03-01T03:15:48;19.80;;;13.57;;
22764;SDS011;11549;50.852;3.816;2023-03-01T03:18:18;18.48;;;13.20;;
22764;SDS011;11549;50.852;3.816;2023-03-01T03:20:46;19.73;;;13.27;;
22764;SDS011;11549;50.852;3.816;2023-03-01T03:23:19;19.35;;;13.30;;
22764;SDS011;11549;50.852;3.816;2023-03-01T03:25:49;21.63;;;13.82;;
22764;SDS011;11549;50.852;3.816;2023-03-01T03:28:17;22.00;;;14.40;;
22764;SDS011;11549;50.852;3.816;2023-03-01T03:30:46;18.58;;;13.48;;
22764;SDS011;11549;50.852;3.816;2023-03-01T03:33:16;19.60;;;13.50;;
22764;SDS011;11549;50.852;3.816;2023-03-01T03:35:46;19.55;;;13.30;;
22764;SDS011;11549;50.852;3.816;2023-03-01T03:38:17;21.90;;;14.10;;
22764;SDS011;11549;50.852;3.816;2023-03-01T03:40:49;19.02;;;13.93;;
22764;SDS011;11549;50.852;3.816;2023-03-01T03:43:19;19.67;;;13.50;;
22764;SDS011;11549;50.852;3.816;2023-03-01T03:45:49;19.20;;;13.45;;
22764;SDS011;11549;50.852;3.816;2023-03-01T03:48:19;20.55;;;14.05;;
22764;SDS011;11549;50.852;3.816;2023-03-01T03:50:49;21.25;;;13.75;;
22764;SDS011;11549;50.852;3.816;2023-03-01T03:53:19;19.83;;;14.35;;
22764;SDS011;11549;50.852;3.816;2023-03-01T03:55:48;20.55;;;13.57;;
22764;SDS011;11549;50.852;3.816;2023-03-01T03:58:18;22.42;;;14.88;;
22764;SDS011;11549;50.852;3.816;2023-03-01T04:00:48;19.92;;;15.10;;
22764;SDS011;11549;50.852;3.816;2023-03-01T04:03:19;25.00;;;15.65;;
22764;SDS011;11549;50.852;3.816;2023-03-01T04:05:48;21.38;;;15.23;;
22764;SDS011;11549;50.852;3.816;2023-03-01T04:08:17;22.38;;;15.07;;
22764;SDS011;11549;50.852;3.816;2023-03-01T04:10:47;23.75;;;15.13;;
22764;SDS011;11549;50.852;3.816;2023-03-01T04:13:17;21.77;;;14.63;;
22764;SDS011;11549;50.852;3.816;2023-03-01T04:15:47;22.45;;;15.98;;
22764;SDS011;11549;50.852;3.816;2023-03-01T04:18:17;21.42;;;15.43;;
22764;SDS011;11549;50.852;3.816;2023-03-01T04:20:48;23.73;;;15.43;;
22764;SDS011;11549;50.852;3.816;2023-03-01T04:23:19;23.33;;;15.18;;
22764;SDS011;11549;50.852;3.816;2023-03-01T04:25:49;20.75;;;15.00;;
22764;SDS011;11549;50.852;3.816;2023-03-01T04:28:22;23.83;;;16.35;;
22764;SDS011;11549;50.852;3.816;2023-03-01T04:30:51;20.38;;;14.57;;
22764;SDS011;11549;50.852;3.816;2023-03-01T04:33:22;23.20;;;15.73;;
22764;SDS011;11549;50.852;3.816;2023-03-01T04:35:51;23.88;;;15.80;;
22764;SDS011;11549;50.852;3.816;2023-03-01T04:38:20;23.48;;;16.17;;
22764;SDS011;11549;50.852;3.816;2023-03-01T04:40:48;23.10;;;15.90;;
22764;SDS011;11549;50.852;3.816;2023-03-01T04:43:17;23.80;;;16.83;;
22764;SDS011;11549;50.852;3.816;2023-03-01T04:45:45;24.20;;;17.20;;
22764;SDS011;11549;50.852;3.816;2023-03-01T04:48:13;23.17;;;16.05;;
22764;SDS011;11549;50.852;3.816;2023-03-01T04:50:43;21.48;;;16.70;;
22764;SDS011;11549;50.852;3.816;2023-03-01T04:53:11;23.23;;;16.75;;
22764;SDS011;11549;50.852;3.816;2023-03-01T04:55:39;24.50;;;17.45;;
22764;SDS011;11549;50.852;3.816;2023-03-01T04:58:08;24.35;;;16.85;;
22764;SDS011;11549;50.852;3.816;2023-03-01T05:00:36;24.13;;;17.23;;
22764;SDS011;11549;50.852;3.816;2023-03-01T05:03:04;23.58;;;16.50;;
22764;SDS011;11549;50.852;3.816;2023-03-01T05:05:34;26.40;;;17.45;;
22764;SDS011;11549;50.852;3.816;2023-03-01T05:08:05;25.98;;;17.02;;
22764;SDS011;11549;50.852;3.816;2023-03-01T05:10:35;25.00;;;16.65;;
22764;SDS011;11549;50.852;3.816;2023-03-01T05:13:05;26.35;;;17.48;;
22764;SDS011;11549;50.852;3.816;2023-03-01T05:15:33;24.55;;;17.42;;
22764;SDS011;11549;50.852;3.816;2023-03-01T05:18:03;25.88;;;18.45;;
22764;SDS011;11549;50.852;3.816;2023-03-01T05:20:37;26.02;;;17.65;;
22764;SDS011;11549;50.852;3.816;2023-03-01T05:23:07;26.13;;;18.38;;
22764;SDS011;11549;50.852;3.816;2023-03-01T05:25:36;29.60;;;19.00;;
22764;SDS011;11549;50.852;3.816;2023-03-01T05:28:07;28.60;;;17.67;;
22764;SDS011;11549;50.852;3.816;2023-03-01T05:30:38;26.15;;;17.75;;
22764;SDS011;11549;50.852;3.816;2023-03-01T05:33:07;27.65;;;18.98;;
22764;SDS011;11549;50.852;3.816;2023-03-01T05:35:40;26.50;;;17.75;;
22764;SDS011;11549;50.852;3.816;2023-03-01T05:38:11;28.80;;;19.17;;
22764;SDS011;11549;50.852;3.816;2023-03-01T05:40:40;31.77;;;19.65;;
22764;SDS011;11549;50.852;3.816;2023-03-01T05:43:09;26.58;;;17.73;;
22764;SDS011;11549;50.852;3.816;2023-03-01T05:45:39;28.00;;;18.65;;
22764;SDS011;11549;50.852;3.816;2023-03-01T05:48:08;28.50;;;18.40;;
22764;SDS011;11549;50.852;3.816;2023-03-01T05:50:38;27.38;;;18.15;;
22764;SDS011;11549;50.852;3.816;2023-03-01T05:53:09;25.45;;;17.27;;
22764;SDS011;11549;50.852;3.816;2023-03-01T05:55:41;23.52;;;16.98;;
22764;SDS011;11549;50.852;3.816;2023-03-01T05:58:12;24.75;;;16.30;;
22764;SDS011;11549;50.852;3.816;2023-03-01T06:00:42;24.67;;;17.23;;
22764;SDS011;11549;50.852;3.816;2023-03-01T06:03:12;22.63;;;16.90;;
22764;SDS011;11549;50.852;3.816;2023-03-01T06:05:42;25.35;;;17.67;;
22764;SDS011;11549;50.852;3.816;2023-03-01T06:08:12;25.65;;;17.33;;
22764;SDS011;11549;50.852;3.816;2023-03-01T06:10:41;26.33;;;17.42;;
22764;SDS011;11549;50.852;3.816;2023-03-01T06:13:09;23.63;;;16.65;;
22764;SDS011;11549;50.852;3.816;2023-03-01T06:15:37;25.65;;;17.77;;
22764;SDS011;11549;50.852;3.816;2023-03-01T06:18:06;26.65;;;17.17;;
22764;SDS011;11549;50.852;3.816;2023-03-01T06:20:34;24.08;;;16.90;;
22764;SDS011;11549;50.852;3.816;2023-03-01T06:23:02;28.25;;;17.40;;
22764;SDS011;11549;50.852;3.816;2023-03-01T06:25:32;24.42;;;17.00;;
22764;SDS011;11549;50.852;3.816;2023-03-01T06:28:00;24.58;;;17.27;;
22764;SDS011;11549;50.852;3.816;2023-03-01T06:30:30;23.08;;;16.42;;
22764;SDS011;11549;50.852;3.816;2023-03-01T06:32:59;24.10;;;17.40;;
22764;SDS011;11549;50.852;3.816;2023-03-01T06:35:29;29.15;;;17.27;;
22764;SDS011;11549;50.852;3.816;2023-03-01T06:38:01;28.17;;;16.70;;
22764;SDS011;11549;50.852;3.816;2023-03-01T06:40:31;25.85;;;17.05;;
22764;SDS011;11549;50.852;3.816;2023-03-01T06:43:01;24.98;;;16.90;;
22764;SDS011;11549;50.852;3.816;2023-03-01T06:45:29;27.10;;;17.25;;
22764;SDS011;11549;50.852;3.816;2023-03-01T06:48:02;24.67;;;17.10;;
22764;SDS011;11549;50.852;3.816;2023-03-01T06:50:32;24.42;;;17.08;;
22764;SDS011;11549;50.852;3.816;2023-03-01T06:53:01;24.83;;;16.42;;
22764;SDS011;11549;50.852;3.816;2023-03-01T06:55:30;27.75;;;17.50;;
22764;SDS011;11549;50.852;3.816;2023-03-01T06:58:00;24.90;;;17.02;;
22764;SDS011;11549;50.852;3.816;2023-03-01T07:00:29;25.55;;;16.33;;
22764;SDS011;11549;50.852;3.816;2023-03-01T07:02:58;22.50;;;15.80;;
22764;SDS011;11549;50.852;3.816;2023-03-01T07:05:29;23.25;;;15.27;;
22764;SDS011;11549;50.852;3.816;2023-03-01T07:07:58;20.60;;;14.43;;
22764;SDS011;11549;50.852;3.816;2023-03-01T07:10:26;21.08;;;14.35;;
22764;SDS011;11549;50.852;3.816;2023-03-01T07:12:55;19.98;;;13.68;;
22764;SDS011;11549;50.852;3.816;2023-03-01T07:15:25;18.90;;;13.27;;
22764;SDS011;11549;50.852;3.816;2023-03-01T07:17:54;21.17;;;14.10;;
22764;SDS011;11549;50.852;3.816;2023-03-01T07:20:24;22.70;;;13.05;;
22764;SDS011;11549;50.852;3.816;2023-03-01T07:22:52;18.33;;;12.63;;
22764;SDS011;11549;50.852;3.816;2023-03-01T07:25:20;19.13;;;13.07;;
22764;SDS011;11549;50.852;3.816;2023-03-01T07:27:49;20.08;;;14.02;;
22764;SDS011;11549;50.852;3.816;2023-03-01T07:30:19;23.60;;;14.25;;
22764;SDS011;11549;50.852;3.816;2023-03-01T07:32:49;19.83;;;13.00;;
22764;SDS011;11549;50.852;3.816;2023-03-01T07:35:21;18.73;;;13.38;;
22764;SDS011;11549;50.852;3.816;2023-03-01T07:37:50;19.38;;;13.15;;
22764;SDS011;11549;50.852;3.816;2023-03-01T07:40:18;17.38;;;12.23;;
22764;SDS011;11549;50.852;3.816;2023-03-01T07:42:46;18.13;;;12.40;;
22764;SDS011;11549;50.852;3.816;2023-03-01T07:45:15;17.58;;;12.07;;
22764;SDS011;11549;50.852;3.816;2023-03-01T07:47:43;21.45;;;12.18;;
22764;SDS011;11549;50.852;3.816;2023-03-01T07:50:13;16.58;;;11.70;;
22764;SDS011;11549;50.852;3.816;2023-03-01T07:52:41;18.77;;;11.68;;
22764;SDS011;11549;50.852;3.816;2023-03-01T07:55:12;16.52;;;11.20;;
22764;SDS011;11549;50.852;3.816;2023-03-01T07:57:40;16.00;;;11.88;;
22764;SDS011;11549;50.852;3.816;2023-03-01T08:00:09;19.20;;;11.77;;
22764;SDS011;11549;50.852;3.816;2023-03-01T08:02:39;16.40;;;11.63;;
22764;SDS011;11549;50.852;3.816;2023-03-01T08:05:08;18.65;;;11.88;;
22764;SDS011;11549;50.852;3.816;2023-03-01T08:07:38;17.75;;;12.00;;
22764;SDS011;11549;50.852;3.816;2023-03-01T08:10:07;15.48;;;11.50;;
22764;SDS011;11549;50.852;3.816;2023-03-01T08:12:37;17.20;;;11.25;;
22764;SDS011;11549;50.852;3.816;2023-03-01T08:15:05;16.70;;;11.10;;
22764;SDS011;11549;50.852;3.816;2023-03-01T08:17:35;15.57;;;10.40;;
22764;SDS011;11549;50.852;3.816;2023-03-01T08:20:03;18.50;;;10.90;;
22764;SDS011;11549;50.852;3.816;2023-03-01T08:22:33;15.35;;;11.35;;
22764;SDS011;11549;50.852;3.816;2023-03-01T08:25:03;16.23;;;11.02;;
22764;SDS011;11549;50.852;3.816;2023-03-01T08:27:31;16.65;;;11.50;;
22764;SDS011;11549;50.852;3.816;2023-03-01T08:30:00;15.73;;;10.98;;
22764;SDS011;11549;50.852;3.816;2023-03-01T08:32:28;15.48;;;11.15;;
22764;SDS011;11549;50.852;3.816;2023-03-01T08:34:56;15.45;;;10.90;;
22764;SDS011;11549;50.852;3.816;2023-03-01T08:37:24;18.38;;;11.75;;
22764;SDS011;11549;50.852;3.816;2023-03-01T08:39:54;16.60;;;11.60;;
22764;SDS011;11549;50.852;3.816;2023-03-01T08:42:23;17.75;;;12.35;;
22764;SDS011;11549;50.852;3.816;2023-03-01T08:44:52;17.08;;;12.07;;
22764;SDS011;11549;50.852;3.816;2023-03-01T08:47:20;20.38;;;12.73;;
22764;SDS011;11549;50.852;3.816;2023-03-01T08:49:49;15.82;;;11.35;;
22764;SDS011;11549;50.852;3.816;2023-03-01T08:52:18;18.23;;;12.52;;
22764;SDS011;11549;50.852;3.816;2023-03-01T08:54:47;18.48;;;11.95;;
22764;SDS011;11549;50.852;3.816;2023-03-01T08:57:15;19.80;;;11.40;;
22764;SDS011;11549;50.852;3.816;2023-03-01T08:59:45;17.58;;;11.50;;
22764;SDS011;11549;50.852;3.816;2023-03-01T09:02:14;17.02;;;11.82;;
22764;SDS011;11549;50.852;3.816;2023-03-01T09:04:44;17.65;;;12.40;;
22764;SDS011;11549;50.852;3.816;2023-03-01T09:07:12;18.83;;;11.88;;
22764;SDS011;11549;50.852;3.816;2023-03-01T09:09:41;18.42;;;12.13;;
22764;SDS011;11549;50.852;3.816;2023-03-01T09:12:09;14.63;;;10.60;;
22764;SDS011;11549;50.852;3.816;2023-03-01T09:14:37;15.40;;;11.55;;
22764;SDS011;11549;50.852;3.816;2023-03-01T09:17:08;15.73;;;11.63;;
22764;SDS011;11549;50.852;3.816;2023-03-01T09:19:37;15.85;;;11.95;;
22764;SDS011;11549;50.852;3.816;2023-03-01T09:22:05;15.30;;;11.77;;
22764;SDS011;11549;50.852;3.816;2023-03-01T09:24:33;18.80;;;12.43;;
22764;SDS011;11549;50.852;3.816;2023-03-01T09:27:02;17.60;;;11.63;;
22764;SDS011;11549;50.852;3.816;2023-03-01T09:29:35;15.07;;;11.40;;
22764;SDS011;11549;50.852;3.816;2023-03-01T09:32:03;16.45;;;12.27;;
22764;SDS011;11549;50.852;3.816;2023-03-01T09:34:33;17.50;;;11.68;;
22764;SDS011;11549;50.852;3.816;2023-03-01T09:37:23;16.08;;;12.10;;
22764;SDS011;11549;50.852;3.816;2023-03-01T09:39:51;16.13;;;11.20;;
22764;SDS011;11549;50.852;3.816;2023-03-01T09:42:19;15.27;;;11.55;;
22764;SDS011;11549;50.852;3.816;2023-03-01T09:44:49;15.32;;;11.35;;
22764;SDS011;11549;50.852;3.816;2023-03-01T09:47:24;16.38;;;11.43;;
22764;SDS011;11549;50.852;3.816;2023-03-01T09:50:00;16.40;;;11.60;;
22764;SDS011;11549;50.852;3.816;2023-03-01T09:52:37;14.55;;;10.82;;
22764;SDS011;11549;50.852;3.816;2023-03-01T09:55:09;17.23;;;11.73;;
22764;SDS011;11549;50.852;3.816;2023-03-01T09:57:41;16.08;;;11.07;;
22764;SDS011;11549;50.852;3.816;2023-03-01T10:00:17;15.57;;;10.68;;
22764;SDS011;11549;50.852;3.816;2023-03-01T10:02:55;14.93;;;10.80;;
22764;SDS011;11549;50.852;3.816;2023-03-01T10:05:39;16.75;;;11.25;;
22764;SDS011;11549;50.852;3.816;2023-03-01T10:08:19;15.18;;;10.73;;
22764;SDS011;11549;50.852;3.816;2023-03-01T10:10:56;16.77;;;11.95;;
22764;SDS011;11549;50.852;3.816;2023-03-01T10:13:28;16.75;;;12.07;;
22764;SDS011;11549;50.852;3.816;2023-03-01T10:16:05;14.57;;;11.30;;
22764;SDS011;11549;50.852;3.816;2023-03-01T10:18:39;15.25;;;11.70;;
22764;SDS011;11549;50.852;3.816;2023-03-01T10:21:13;14.73;;;11.20;;
22764;SDS011;11549;50.852;3.816;2023-03-01T10:23:43;17.92;;;12.02;;
22764;SDS011;11549;50.852;3.816;2023-03-01T10:26:20;16.55;;;12.40;;
22764;SDS011;11549;50.852;3.816;2023-03-01T10:29:06;15.80;;;11.73;;
22764;SDS011;11549;50.852;3.816;2023-03-01T10:31:38;17.55;;;12.40;;
22764;SDS011;11549;50.852;3.816;2023-03-01T10:34:13;15.38;;;12.55;;
22764;SDS011;11549;50.852;3.816;2023-03-01T10:36:47;16.23;;;11.45;;
22764;SDS011;11549;50.852;3.816;2023-03-01T10:39:18;16.60;;;11.75;;
22764;SDS011;11549;50.852;3.816;2023-03-01T10:41:52;15.63;;;11.38;;
22764;SDS011;11549;50.852;3.816;2023-03-01T10:44:39;16.77;;;11.80;;
22764;SDS011;11549;50.852;3.816;2023-03-01T10:47:14;15.40;;;11.88;;
22764;SDS011;11549;50.852;3.816;2023-03-01T10:49:56;15.77;;;11.48;;
22764;SDS011;11549;50.852;3.816;2023-03-01T10:52:30;14.93;;;10.75;;
22764;SDS011;11549;50.852;3.816;2023-03-01T10:55:01;15.30;;;11.50;;
22764;SDS011;11549;50.852;3.816;2023-03-01T10:57:35;15.18;;;11.27;;
22764;SDS011;11549;50.852;3.816;2023-03-01T11:00:15;14.80;;;10.68;;
22764;SDS011;11549;50.852;3.816;2023-03-01T11:02:49;14.30;;;11.02;;
22764;SDS011;11549;50.852;3.816;2023-03-01T11:05:29;16.08;;;10.45;;
22764;SDS011;11549;50.852;3.816;2023-03-01T11:08:02;14.07;;;10.93;;
22764;SDS011;11549;50.852;3.816;2023-03-01T11:10:32;16.80;;;11.13;;
22764;SDS011;11549;50.852;3.816;2023-03-01T11:13:08;13.85;;;10.40;;
22764;SDS011;11549;50.852;3.816;2023-03-01T11:15:42;14.25;;;10.30;;
22764;SDS011;11549;50.852;3.816;2023-03-01T11:18:25;14.37;;;10.70;;
22764;SDS011;11549;50.852;3.816;2023-03-01T11:21:12;14.27;;;10.63;;
22764;SDS011;11549;50.852;3.816;2023-03-01T11:23:44;15.20;;;10.55;;
22764;SDS011;11549;50.852;3.816;2023-03-01T11:26:13;15.95;;;11.07;;
22764;SDS011;11549;50.852;3.816;2023-03-01T11:28:45;15.18;;;10.20;;
22764;SDS011;11549;50.852;3.816;2023-03-01T11:31:22;14.65;;;9.82;;
22764;SDS011;11549;50.852;3.816;2023-03-01T11:33:54;12.50;;;9.50;;
22764;SDS011;11549;50.852;3.816;2023-03-01T11:36:26;13.23;;;9.65;;
22764;SDS011;11549;50.852;3.816;2023-03-01T11:39:02;12.20;;;9.98;;
22764;SDS011;11549;50.852;3.816;2023-03-01T11:41:40;14.23;;;9.52;;
22764;SDS011;11549;50.852;3.816;2023-03-01T11:44:10;15.82;;;10.68;;
22764;SDS011;11549;50.852;3.816;2023-03-01T11:46:53;17.35;;;10.57;;
22764;SDS011;11549;50.852;3.816;2023-03-01T11:49:45;13.85;;;10.65;;
22764;SDS011;11549;50.852;3.816;2023-03-01T11:52:29;14.65;;;10.05;;
22764;SDS011;11549;50.852;3.816;2023-03-01T11:55:15;15.73;;;10.60;;
22764;SDS011;11549;50.852;3.816;2023-03-01T11:57:57;15.27;;;10.35;;
22764;SDS011;11549;50.852;3.816;2023-03-01T12:00:42;16.42;;;10.32;;
22764;SDS011;11549;50.852;3.816;2023-03-01T12:03:25;13.00;;;9.85;;
22764;SDS011;11549;50.852;3.816;2023-03-01T12:09:06;14.13;;;9.60;;
22764;SDS011;11549;50.852;3.816;2023-03-01T12:12:07;13.30;;;10.07;;
22764;SDS011;11549;50.852;3.816;2023-03-01T12:15:03;14.38;;;10.02;;
22764;SDS011;11549;50.852;3.816;2023-03-01T12:17:56;17.70;;;10.13;;
22764;SDS011;11549;50.852;3.816;2023-03-01T12:20:32;15.18;;;10.35;;
22764;SDS011;11549;50.852;3.816;2023-03-01T12:26:13;13.13;;;9.55;;
22764;SDS011;11549;50.852;3.816;2023-03-01T12:29:01;13.43;;;9.60;;
22764;SDS011;11549;50.852;3.816;2023-03-01T12:35:03;15.45;;;10.45;;
22764;SDS011;11549;50.852;3.816;2023-03-01T12:37:44;14.02;;;10.13;;
22764;SDS011;11549;50.852;3.816;2023-03-01T12:43:21;14.52;;;9.93;;
22764;SDS011;11549;50.852;3.816;2023-03-01T12:46:01;12.68;;;10.40;;
22764;SDS011;11549;50.852;3.816;2023-03-01T12:49:01;14.23;;;10.45;;
22764;SDS011;11549;50.852;3.816;2023-03-01T12:51:34;16.13;;;9.93;;
22764;SDS011;11549;50.852;3.816;2023-03-01T12:54:06;14.50;;;10.20;;
22764;SDS011;11549;50.852;3.816;2023-03-01T12:56:42;15.55;;;10.50;;
22764;SDS011;11549;50.852;3.816;2023-03-01T12:59:19;13.63;;;9.77;;
22764;SDS011;11549;50.852;3.816;2023-03-01T13:02:00;14.45;;;10.70;;
22764;SDS011;11549;50.852;3.816;2023-03-01T13:04:38;13.88;;;10.18;;
22764;SDS011;11549;50.852;3.816;2023-03-01T13:07:25;15.13;;;9.80;;
22764;SDS011;11549;50.852;3.816;2023-03-01T13:10:02;15.02;;;10.00;;
22764;SDS011;11549;50.852;3.816;2023-03-01T13:13:00;16.02;;;11.05;;
22764;SDS011;11549;50.852;3.816;2023-03-01T13:15:37;15.23;;;10.55;;
22764;SDS011;11549;50.852;3.816;2023-03-01T13:20:59;13.32;;;10.07;;
22764;SDS011;11549;50.852;3.816;2023-03-01T13:23:30;11.63;;;10.43;;
22764;SDS011;11549;50.852;3.816;2023-03-01T13:26:02;12.65;;;10.32;;
22764;SDS011;11549;50.852;3.816;2023-03-01T13:43:22;14.50;;;10.70;;
22764;SDS011;11549;50.852;3.816;2023-03-01T13:45:57;16.90;;;10.48;;
22764;SDS011;11549;50.852;3.816;2023-03-01T13:48:27;14.88;;;9.93;;
22764;SDS011;11549;50.852;3.816;2023-03-01T13:50:59;14.55;;;9.60;;
22764;SDS011;11549;50.852;3.816;2023-03-01T13:53:31;12.77;;;9.85;;
22764;SDS011;11549;50.852;3.816;2023-03-01T13:56:06;13.77;;;8.85;;
22764;SDS011;11549;50.852;3.816;2023-03-01T13:58:49;13.07;;;9.55;;
22764;SDS011;11549;50.852;3.816;2023-03-01T14:03:50;14.18;;;9.57;;
22764;SDS011;11549;50.852;3.816;2023-03-01T14:06:21;12.90;;;9.90;;
22764;SDS011;11549;50.852;3.816;2023-03-01T14:09:00;12.93;;;9.77;;
22764;SDS011;11549;50.852;3.816;2023-03-01T14:11:37;15.05;;;9.10;;
22764;SDS011;11549;50.852;3.816;2023-03-01T14:14:36;14.55;;;9.23;;
22764;SDS011;11549;50.852;3.816;2023-03-01T14:17:21;12.95;;;8.68;;
22764;SDS011;11549;50.852;3.816;2023-03-01T14:22:41;12.75;;;8.63;;
22764;SDS011;11549;50.852;3.816;2023-03-01T14:25:18;13.20;;;8.73;;
22764;SDS011;11549;50.852;3.816;2023-03-01T14:27:56;14.63;;;9.00;;
22764;SDS011;11549;50.852;3.816;2023-03-01T14:30:31;10.90;;;8.80;;
22764;SDS011;11549;50.852;3.816;2023-03-01T14:33:03;13.07;;;9.18;;
22764;SDS011;11549;50.852;3.816;2023-03-01T14:35:33;14.02;;;9.43;;
22764;SDS011;11549;50.852;3.816;2023-03-01T14:38:04;11.55;;;8.50;;
22764;SDS011;11549;50.852;3.816;2023-03-01T14:40:34;13.52;;;7.95;;
22764;SDS011;11549;50.852;3.816;2023-03-01T14:43:08;12.38;;;8.35;;
22764;SDS011;11549;50.852;3.816;2023-03-01T14:45:39;12.07;;;8.60;;
22764;SDS011;11549;50.852;3.816;2023-03-01T14:48:16;12.00;;;8.48;;
22764;SDS011;11549;50.852;3.816;2023-03-01T14:50:46;11.57;;;8.07;;
22764;SDS011;11549;50.852;3.816;2023-03-01T14:53:16;12.20;;;8.50;;
22764;SDS011;11549;50.852;3.816;2023-03-01T14:55:48;11.40;;;8.60;;
22764;SDS011;11549;50.852;3.816;2023-03-01T14:58:20;13.13;;;8.57;;
22764;SDS011;11549;50.852;3.816;2023-03-01T15:00:50;12.30;;;8.70;;
22764;SDS011;11549;50.852;3.816;2023-03-01T15:03:24;13.85;;;8.43;;
22764;SDS011;11549;50.852;3.816;2023-03-01T15:05:55;12.50;;;8.63;;
22764;SDS011;11549;50.852;3.816;2023-03-01T15:08:25;12.52;;;8.00;;
22764;SDS011;11549;50.852;3.816;2023-03-01T15:11:00;13.15;;;8.57;;
22764;SDS011;11549;50.852;3.816;2023-03-01T15:13:33;12.02;;;8.38;;
22764;SDS011;11549;50.852;3.816;2023-03-01T15:16:04;10.30;;;8.20;;
22764;SDS011;11549;50.852;3.816;2023-03-01T15:18:35;14.80;;;8.65;;
22764;SDS011;11549;50.852;3.816;2023-03-01T15:21:05;14.15;;;8.65;;
22764;SDS011;11549;50.852;3.816;2023-03-01T15:23:36;18.73;;;8.68;;
22764;SDS011;11549;50.852;3.816;2023-03-01T15:26:16;14.90;;;8.70;;
22764;SDS011;11549;50.852;3.816;2023-03-01T15:28:51;12.35;;;9.00;;
22764;SDS011;11549;50.852;3.816;2023-03-01T15:31:25;12.60;;;8.75;;